BWA347 TNCM-TTPP
Flight info
| Callsign | BWA347 |
|---|---|
| Flight time | 1h 7m |
| Altitude | 35000 |
| Route | MODOR2 ZPATA DCT SOMON DCT GND A324 IMORO |
| Aircraft | B38M/M-SDE1FGHILORVWXY/HB1 |
Departure
| Time | 2026-05-08 16:49 |
|---|---|
| Airport | Princess Juliana International Airport (TNCM) |
Arrival
| Time | 2026-05-08 17:56 |
|---|---|
| Airport | Piarco International Airport (TTPP) |
| Time | Latitude | Longitude | Altitude | Speed | Heading |
|---|---|---|---|---|---|
| 2026-05-08 16:38 | 18.04329 | -63.11361 | 22 ft | 0 kts | 352° |
| 2026-05-08 16:42 | 18.04318 | -63.11359 | 22 ft | 2 kts | 351° |
| 2026-05-08 16:43 | 18.04303 | -63.11357 | 22 ft | 2 kts | 352° |
| 2026-05-08 16:43 | 18.04288 | -63.11355 | 21 ft | 2 kts | 352° |
| 2026-05-08 16:43 | 18.04274 | -63.11353 | 21 ft | 2 kts | 352° |
| 2026-05-08 16:43 | 18.04261 | -63.11351 | 21 ft | 0 kts | 352° |
| 2026-05-08 16:44 | 18.04250 | -63.11348 | 21 ft | 2 kts | 319° |
| 2026-05-08 16:44 | 18.04242 | -63.11335 | 20 ft | 2 kts | 275° |
| 2026-05-08 16:44 | 18.04243 | -63.11328 | 20 ft | 1 kts | 255° |
| 2026-05-08 16:44 | 18.04244 | -63.11323 | 20 ft | 0 kts | 261° |
| 2026-05-08 16:46 | 18.04243 | -63.11325 | 20 ft | 1 kts | 261° |
| 2026-05-08 16:46 | 18.04236 | -63.11373 | 21 ft | 11 kts | 261° |
| 2026-05-08 16:47 | 18.04215 | -63.11479 | 22 ft | 16 kts | 242° |
| 2026-05-08 16:47 | 18.04152 | -63.11568 | 23 ft | 14 kts | 231° |
| 2026-05-08 16:47 | 18.04077 | -63.11666 | 25 ft | 19 kts | 240° |
| 2026-05-08 16:47 | 18.04050 | -63.11798 | 25 ft | 17 kts | 261° |
| 2026-05-08 16:48 | 18.04020 | -63.11914 | 26 ft | 14 kts | 232° |
| 2026-05-08 16:48 | 18.03948 | -63.11962 | 25 ft | 8 kts | 148° |
| 2026-05-08 16:48 | 18.03944 | -63.11937 | 25 ft | 0 kts | 82° |
| 2026-05-08 16:48 | 18.03945 | -63.11927 | 25 ft | 6 kts | 82° |
| 2026-05-08 16:49 | 18.03981 | -63.11684 | 25 ft | 66 kts | 81° |
| 2026-05-08 16:49 | 18.04084 | -63.10972 | 16 ft | 125 kts | 82° |
| 2026-05-08 16:49 | 18.04237 | -63.09911 | 53 ft | 163 kts | 81° |
| 2026-05-08 16:49 | 18.04372 | -63.08808 | 795 ft | 149 kts | 93° |
| 2026-05-08 16:50 | 18.03950 | -63.07851 | 1360 ft | 159 kts | 139° |
| 2026-05-08 16:50 | 18.02941 | -63.07207 | 1714 ft | 177 kts | 148° |
| 2026-05-08 16:50 | 18.01648 | -63.06805 | 1900 ft | 215 kts | 170° |
| 2026-05-08 16:50 | 18.00130 | -63.06782 | 2526 ft | 224 kts | 179° |
| 2026-05-08 16:51 | 17.98469 | -63.06934 | 2782 ft | 254 kts | 182° |
| 2026-05-08 16:51 | 17.96684 | -63.07143 | 3495 ft | 260 kts | 183° |
| 2026-05-08 16:51 | 17.94935 | -63.07362 | 4342 ft | 259 kts | 183° |
| 2026-05-08 16:51 | 17.93061 | -63.07590 | 4796 ft | 276 kts | 184° |
| 2026-05-08 16:52 | 17.91122 | -63.07809 | 5375 ft | 284 kts | 183° |
| 2026-05-08 16:52 | 17.89141 | -63.08007 | 5986 ft | 288 kts | 180° |
| 2026-05-08 16:52 | 17.87139 | -63.07920 | 6658 ft | 287 kts | 165° |
| 2026-05-08 16:52 | 17.85302 | -63.07149 | 7294 ft | 286 kts | 147° |
| 2026-05-08 16:53 | 17.81935 | -63.04863 | 8581 ft | 294 kts | 144° |
| 2026-05-08 16:53 | 17.80189 | -63.03702 | 9214 ft | 300 kts | 146° |
| 2026-05-08 16:53 | 17.78379 | -63.02555 | 9899 ft | 305 kts | 147° |
| 2026-05-08 16:54 | 17.76544 | -63.01420 | 10469 ft | 314 kts | 147° |
| 2026-05-08 16:54 | 17.74608 | -63.00224 | 10841 ft | 328 kts | 147° |
| 2026-05-08 16:54 | 17.72628 | -62.99002 | 11430 ft | 334 kts | 147° |
| 2026-05-08 16:54 | 17.70608 | -62.97754 | 12124 ft | 336 kts | 147° |
| 2026-05-08 16:55 | 17.68591 | -62.96505 | 12782 ft | 339 kts | 147° |
| 2026-05-08 16:55 | 17.66567 | -62.95251 | 13384 ft | 343 kts | 147° |
| 2026-05-08 16:55 | 17.64511 | -62.93978 | 14047 ft | 345 kts | 147° |
| 2026-05-08 16:55 | 17.62426 | -62.92685 | 14697 ft | 348 kts | 147° |
| 2026-05-08 16:56 | 17.60331 | -62.91386 | 15239 ft | 352 kts | 147° |
| 2026-05-08 16:56 | 17.58225 | -62.90081 | 15891 ft | 355 kts | 147° |
| 2026-05-08 16:56 | 17.56087 | -62.88758 | 16528 ft | 358 kts | 147° |
| 2026-05-08 16:56 | 17.53921 | -62.87418 | 17108 ft | 361 kts | 147° |
| 2026-05-08 16:57 | 17.51750 | -62.86075 | 17683 ft | 365 kts | 146° |
| 2026-05-08 16:57 | 17.49571 | -62.84734 | 18308 ft | 367 kts | 147° |
| 2026-05-08 16:57 | 17.47293 | -62.83433 | 18871 ft | 372 kts | 151° |
| 2026-05-08 16:57 | 17.44918 | -62.82354 | 19424 ft | 377 kts | 156° |
| 2026-05-08 16:58 | 17.42426 | -62.81433 | 20001 ft | 381 kts | 158° |
| 2026-05-08 16:58 | 17.39880 | -62.80575 | 20558 ft | 384 kts | 159° |
| 2026-05-08 16:58 | 17.37336 | -62.79734 | 21062 ft | 387 kts | 159° |
| 2026-05-08 16:58 | 17.34744 | -62.78873 | 21553 ft | 391 kts | 158° |
| 2026-05-08 16:59 | 17.32144 | -62.77998 | 22045 ft | 394 kts | 158° |
| 2026-05-08 16:59 | 17.29492 | -62.77095 | 22566 ft | 396 kts | 158° |
| 2026-05-08 16:59 | 17.26888 | -62.76202 | 23090 ft | 398 kts | 157° |
| 2026-05-08 16:59 | 17.24241 | -62.75290 | 23545 ft | 401 kts | 157° |
| 2026-05-08 17:00 | 17.21577 | -62.74370 | 23962 ft | 405 kts | 158° |
| 2026-05-08 17:00 | 17.18895 | -62.73442 | 24408 ft | 408 kts | 157° |
| 2026-05-08 17:00 | 17.16163 | -62.72494 | 24781 ft | 413 kts | 157° |
| 2026-05-08 17:00 | 17.13409 | -62.71538 | 25208 ft | 416 kts | 156° |
| 2026-05-08 17:01 | 17.10672 | -62.70589 | 25637 ft | 418 kts | 156° |
| 2026-05-08 17:01 | 17.07907 | -62.69630 | 26066 ft | 421 kts | 156° |
| 2026-05-08 17:01 | 17.05102 | -62.68655 | 26485 ft | 423 kts | 156° |
| 2026-05-08 17:01 | 17.02276 | -62.67675 | 26912 ft | 425 kts | 155° |
| 2026-05-08 17:02 | 16.99465 | -62.66701 | 27292 ft | 428 kts | 156° |
| 2026-05-08 17:02 | 16.96620 | -62.65713 | 27643 ft | 431 kts | 156° |
| 2026-05-08 17:02 | 16.93754 | -62.64719 | 27951 ft | 435 kts | 156° |
| 2026-05-08 17:02 | 16.90854 | -62.63716 | 28368 ft | 436 kts | 155° |
| 2026-05-08 17:03 | 16.87941 | -62.62708 | 28678 ft | 440 kts | 155° |
| 2026-05-08 17:03 | 16.85036 | -62.61704 | 29002 ft | 442 kts | 155° |
| 2026-05-08 17:03 | 16.82083 | -62.60683 | 29335 ft | 444 kts | 155° |
| 2026-05-08 17:03 | 16.79123 | -62.59660 | 29598 ft | 448 kts | 155° |
| 2026-05-08 17:04 | 16.76162 | -62.58636 | 29837 ft | 452 kts | 155° |
| 2026-05-08 17:04 | 16.73168 | -62.57603 | 30170 ft | 454 kts | 155° |
| 2026-05-08 17:04 | 16.70136 | -62.56556 | 30404 ft | 457 kts | 156° |
| 2026-05-08 17:04 | 16.67079 | -62.55500 | 30665 ft | 461 kts | 156° |
| 2026-05-08 17:05 | 16.64033 | -62.54448 | 31035 ft | 461 kts | 156° |
| 2026-05-08 17:05 | 16.60984 | -62.53396 | 31247 ft | 465 kts | 156° |
| 2026-05-08 17:05 | 16.57884 | -62.52326 | 31475 ft | 469 kts | 156° |
| 2026-05-08 17:05 | 16.54791 | -62.51262 | 31745 ft | 471 kts | 156° |
| 2026-05-08 17:06 | 16.51662 | -62.50186 | 32054 ft | 472 kts | 156° |
| 2026-05-08 17:06 | 16.48523 | -62.49104 | 32291 ft | 475 kts | 156° |
| 2026-05-08 17:06 | 16.45391 | -62.48024 | 32524 ft | 478 kts | 156° |
| 2026-05-08 17:06 | 16.42196 | -62.46922 | 32801 ft | 480 kts | 156° |
| 2026-05-08 17:07 | 16.39008 | -62.45825 | 33095 ft | 481 kts | 157° |
| 2026-05-08 17:07 | 16.35808 | -62.44726 | 33331 ft | 484 kts | 157° |
| 2026-05-08 17:07 | 16.32623 | -62.43634 | 33804 ft | 482 kts | 157° |
| 2026-05-08 17:07 | 16.29446 | -62.42544 | 34011 ft | 485 kts | 157° |
| 2026-05-08 17:08 | 16.26205 | -62.41433 | 34562 ft | 480 kts | 157° |
| 2026-05-08 17:08 | 16.23040 | -62.40349 | 34949 ft | 478 kts | 158° |
| 2026-05-08 17:08 | 16.16677 | -62.38163 | 34987 ft | 477 kts | 158° |
| 2026-05-08 17:09 | 16.10308 | -62.35974 | 34986 ft | 487 kts | 158° |
| 2026-05-08 17:09 | 16.03775 | -62.33727 | 34988 ft | 497 kts | 158° |
| 2026-05-08 17:10 | 15.97233 | -62.31484 | 34985 ft | 495 kts | 158° |
| 2026-05-08 17:10 | 15.90725 | -62.29259 | 34985 ft | 493 kts | 159° |
| 2026-05-08 17:11 | 15.84232 | -62.27042 | 34985 ft | 495 kts | 158° |
| 2026-05-08 17:11 | 15.77713 | -62.24814 | 34983 ft | 495 kts | 159° |
| 2026-05-08 17:12 | 15.71160 | -62.22573 | 34979 ft | 493 kts | 159° |
| 2026-05-08 17:12 | 15.64618 | -62.20420 | 34979 ft | 494 kts | 163° |
| 2026-05-08 17:13 | 15.57808 | -62.19222 | 34978 ft | 498 kts | 172° |
| 2026-05-08 17:13 | 15.50888 | -62.18544 | 34981 ft | 497 kts | 173° |
| 2026-05-08 17:14 | 15.44025 | -62.17915 | 34977 ft | 496 kts | 173° |
| 2026-05-08 17:14 | 15.37143 | -62.17215 | 34977 ft | 495 kts | 173° |
| 2026-05-08 17:15 | 15.30265 | -62.16458 | 34973 ft | 495 kts | 172° |
| 2026-05-08 17:15 | 15.23417 | -62.15672 | 34969 ft | 494 kts | 172° |
| 2026-05-08 17:16 | 15.16561 | -62.14878 | 34967 ft | 493 kts | 173° |
| 2026-05-08 17:16 | 15.09737 | -62.14085 | 34969 ft | 493 kts | 172° |
| 2026-05-08 17:17 | 15.02923 | -62.13288 | 34966 ft | 492 kts | 172° |
| 2026-05-08 17:17 | 14.96103 | -62.12492 | 34967 ft | 492 kts | 173° |
| 2026-05-08 17:18 | 14.89309 | -62.11702 | 34965 ft | 491 kts | 173° |
| 2026-05-08 17:18 | 14.82482 | -62.10907 | 34966 ft | 490 kts | 173° |
| 2026-05-08 17:19 | 14.75670 | -62.10118 | 34964 ft | 490 kts | 173° |
| 2026-05-08 17:19 | 14.68908 | -62.09335 | 34966 ft | 489 kts | 173° |
| 2026-05-08 17:20 | 14.62137 | -62.08549 | 34965 ft | 487 kts | 174° |
| 2026-05-08 17:20 | 14.55340 | -62.07761 | 34965 ft | 494 kts | 174° |
| 2026-05-08 17:21 | 14.48484 | -62.06970 | 34965 ft | 496 kts | 174° |
| 2026-05-08 17:21 | 14.41603 | -62.06172 | 34964 ft | 493 kts | 174° |
| 2026-05-08 17:22 | 14.34805 | -62.05386 | 34964 ft | 491 kts | 174° |
| 2026-05-08 17:22 | 14.27995 | -62.04601 | 34965 ft | 489 kts | 174° |
| 2026-05-08 17:23 | 14.21247 | -62.03823 | 34965 ft | 491 kts | 174° |
| 2026-05-08 17:23 | 14.14424 | -62.03035 | 34964 ft | 488 kts | 174° |
| 2026-05-08 17:24 | 14.07624 | -62.02253 | 34957 ft | 490 kts | 174° |
| 2026-05-08 17:24 | 14.00873 | -62.01475 | 34947 ft | 486 kts | 174° |
| 2026-05-08 17:25 | 13.94133 | -62.00697 | 34947 ft | 486 kts | 175° |
| 2026-05-08 17:25 | 13.87413 | -61.99923 | 34948 ft | 484 kts | 175° |
| 2026-05-08 17:26 | 13.80651 | -61.99146 | 34949 ft | 489 kts | 175° |
| 2026-05-08 17:26 | 13.73867 | -61.98366 | 34948 ft | 488 kts | 175° |
| 2026-05-08 17:27 | 13.67123 | -61.97591 | 34948 ft | 488 kts | 175° |
| 2026-05-08 17:27 | 13.60369 | -61.96814 | 34947 ft | 486 kts | 175° |
| 2026-05-08 17:28 | 13.53618 | -61.96040 | 34950 ft | 486 kts | 176° |
| 2026-05-08 17:28 | 13.46897 | -61.95270 | 34946 ft | 485 kts | 175° |
| 2026-05-08 17:29 | 13.40192 | -61.94501 | 34947 ft | 485 kts | 175° |
| 2026-05-08 17:29 | 13.33453 | -61.93733 | 34947 ft | 484 kts | 176° |
| 2026-05-08 17:30 | 13.26742 | -61.92963 | 34946 ft | 483 kts | 176° |
| 2026-05-08 17:30 | 13.20049 | -61.92195 | 34949 ft | 483 kts | 176° |
| 2026-05-08 17:31 | 13.13404 | -61.91436 | 34947 ft | 481 kts | 176° |
| 2026-05-08 17:31 | 13.06749 | -61.90677 | 34947 ft | 481 kts | 176° |
| 2026-05-08 17:32 | 13.00090 | -61.89916 | 34947 ft | 480 kts | 176° |
| 2026-05-08 17:32 | 12.93445 | -61.89158 | 34944 ft | 479 kts | 176° |
| 2026-05-08 17:33 | 12.86760 | -61.88396 | 34944 ft | 479 kts | 176° |
| 2026-05-08 17:33 | 12.80158 | -61.87642 | 34945 ft | 478 kts | 176° |
| 2026-05-08 17:34 | 12.73503 | -61.86881 | 34944 ft | 479 kts | 177° |
| 2026-05-08 17:34 | 12.66874 | -61.86126 | 34942 ft | 478 kts | 177° |
| 2026-05-08 17:35 | 12.60256 | -61.85372 | 34946 ft | 476 kts | 177° |
| 2026-05-08 17:35 | 12.53676 | -61.84625 | 34943 ft | 475 kts | 177° |
| 2026-05-08 17:36 | 12.47092 | -61.83875 | 34943 ft | 474 kts | 177° |
| 2026-05-08 17:36 | 12.40507 | -61.83126 | 34942 ft | 473 kts | 178° |
| 2026-05-08 17:37 | 12.33992 | -61.82383 | 34940 ft | 471 kts | 178° |
| 2026-05-08 17:37 | 12.27439 | -61.81637 | 34938 ft | 473 kts | 178° |
| 2026-05-08 17:38 | 12.20915 | -61.80893 | 34824 ft | 461 kts | 178° |
| 2026-05-08 17:38 | 12.17769 | -61.80530 | 34372 ft | 455 kts | 178° |
| 2026-05-08 17:38 | 12.14632 | -61.80174 | 33574 ft | 456 kts | 178° |
| 2026-05-08 17:39 | 12.11469 | -61.79816 | 32752 ft | 457 kts | 178° |
| 2026-05-08 17:39 | 12.08300 | -61.79460 | 31993 ft | 458 kts | 178° |
| 2026-05-08 17:39 | 12.05105 | -61.79101 | 31233 ft | 459 kts | 178° |
| 2026-05-08 17:39 | 12.01920 | -61.78739 | 30476 ft | 459 kts | 177° |
| 2026-05-08 17:40 | 11.98773 | -61.78265 | 29728 ft | 461 kts | 174° |
| 2026-05-08 17:40 | 11.95627 | -61.77591 | 28972 ft | 461 kts | 171° |
| 2026-05-08 17:40 | 11.92542 | -61.76815 | 28224 ft | 461 kts | 170° |
| 2026-05-08 17:40 | 11.89431 | -61.75982 | 27478 ft | 460 kts | 169° |
| 2026-05-08 17:41 | 11.86341 | -61.75139 | 26728 ft | 458 kts | 169° |
| 2026-05-08 17:41 | 11.83246 | -61.74296 | 25977 ft | 456 kts | 169° |
| 2026-05-08 17:41 | 11.80214 | -61.73481 | 25240 ft | 455 kts | 169° |
| 2026-05-08 17:41 | 11.77128 | -61.72662 | 24492 ft | 453 kts | 168° |
| 2026-05-08 17:42 | 11.74115 | -61.71869 | 23759 ft | 451 kts | 168° |
| 2026-05-08 17:42 | 11.71056 | -61.71070 | 23014 ft | 449 kts | 168° |
| 2026-05-08 17:42 | 11.68036 | -61.70286 | 22279 ft | 447 kts | 168° |
| 2026-05-08 17:42 | 11.65012 | -61.69504 | 21547 ft | 445 kts | 167° |
| 2026-05-08 17:43 | 11.62044 | -61.68738 | 20824 ft | 443 kts | 167° |
| 2026-05-08 17:43 | 11.59066 | -61.67971 | 20099 ft | 440 kts | 167° |
| 2026-05-08 17:43 | 11.56101 | -61.67209 | 19374 ft | 438 kts | 167° |
| 2026-05-08 17:43 | 11.53126 | -61.66443 | 18648 ft | 435 kts | 166° |
| 2026-05-08 17:44 | 11.50209 | -61.65713 | 17936 ft | 432 kts | 168° |
| 2026-05-08 17:44 | 11.47282 | -61.65121 | 17444 ft | 424 kts | 170° |
| 2026-05-08 17:44 | 11.44412 | -61.64647 | 17200 ft | 414 kts | 171° |
| 2026-05-08 17:44 | 11.41534 | -61.64211 | 16893 ft | 416 kts | 172° |
| 2026-05-08 17:45 | 11.38681 | -61.63780 | 16435 ft | 413 kts | 171° |
| 2026-05-08 17:45 | 11.35839 | -61.63342 | 15920 ft | 409 kts | 171° |
| 2026-05-08 17:45 | 11.33051 | -61.62901 | 15404 ft | 405 kts | 171° |
| 2026-05-08 17:45 | 11.30266 | -61.62449 | 14888 ft | 402 kts | 170° |
| 2026-05-08 17:46 | 11.27493 | -61.61991 | 14371 ft | 400 kts | 170° |
| 2026-05-08 17:46 | 11.24772 | -61.61538 | 13862 ft | 398 kts | 169° |
| 2026-05-08 17:46 | 11.22034 | -61.61079 | 13352 ft | 396 kts | 169° |
| 2026-05-08 17:46 | 11.19317 | -61.60623 | 12840 ft | 393 kts | 169° |
| 2026-05-08 17:47 | 11.16621 | -61.60170 | 12331 ft | 389 kts | 169° |
| 2026-05-08 17:47 | 11.13950 | -61.59722 | 11830 ft | 387 kts | 169° |
| 2026-05-08 17:47 | 11.11306 | -61.59280 | 11334 ft | 383 kts | 169° |
| 2026-05-08 17:47 | 11.09541 | -61.58985 | 11000 ft | 381 kts | 169° |
| 2026-05-08 17:48 | 11.06087 | -61.58406 | 10345 ft | 377 kts | 169° |
| 2026-05-08 17:48 | 11.03500 | -61.57974 | 9916 ft | 373 kts | 169° |
| 2026-05-08 17:48 | 11.00914 | -61.57542 | 9708 ft | 373 kts | 169° |
| 2026-05-08 17:48 | 10.98372 | -61.57116 | 9229 ft | 373 kts | 169° |
| 2026-05-08 17:49 | 10.95805 | -61.56686 | 8702 ft | 368 kts | 169° |
| 2026-05-08 17:49 | 10.93298 | -61.56267 | 8242 ft | 362 kts | 169° |
| 2026-05-08 17:49 | 10.90818 | -61.55853 | 7796 ft | 360 kts | 169° |
| 2026-05-08 17:49 | 10.88352 | -61.55441 | 7351 ft | 359 kts | 169° |
| 2026-05-08 17:50 | 10.85878 | -61.55028 | 6908 ft | 356 kts | 169° |
| 2026-05-08 17:50 | 10.83455 | -61.54623 | 6468 ft | 354 kts | 169° |
| 2026-05-08 17:50 | 10.81034 | -61.54218 | 6025 ft | 351 kts | 169° |
| 2026-05-08 17:50 | 10.78626 | -61.53814 | 5598 ft | 347 kts | 169° |
| 2026-05-08 17:51 | 10.76250 | -61.53418 | 5176 ft | 344 kts | 169° |
| 2026-05-08 17:51 | 10.73883 | -61.53024 | 4737 ft | 339 kts | 168° |
| 2026-05-08 17:51 | 10.71565 | -61.52639 | 4328 ft | 331 kts | 168° |
| 2026-05-08 17:51 | 10.69306 | -61.52328 | 4092 ft | 318 kts | 173° |
| 2026-05-08 17:52 | 10.67141 | -61.52231 | 3805 ft | 310 kts | 176° |
| 2026-05-08 17:52 | 10.64980 | -61.52230 | 3373 ft | 307 kts | 178° |
| 2026-05-08 17:52 | 10.61128 | -61.51257 | 2762 ft | 272 kts | 135° |
| 2026-05-08 17:53 | 10.60044 | -61.49781 | 2523 ft | 254 kts | 112° |
| 2026-05-08 17:53 | 10.59508 | -61.48133 | 2294 ft | 240 kts | 101° |
| 2026-05-08 17:53 | 10.59317 | -61.46502 | 2049 ft | 225 kts | 86° |
| 2026-05-08 17:53 | 10.59506 | -61.45020 | 1914 ft | 195 kts | 83° |
| 2026-05-08 17:54 | 10.59581 | -61.43719 | 1694 ft | 175 kts | 89° |
| 2026-05-08 17:54 | 10.59535 | -61.42509 | 1337 ft | 168 kts | 91° |
| 2026-05-08 17:54 | 10.59514 | -61.41391 | 1159 ft | 147 kts | 88° |
| 2026-05-08 17:54 | 10.59528 | -61.40384 | 1059 ft | 139 kts | 89° |
| 2026-05-08 17:55 | 10.59531 | -61.39398 | 899 ft | 137 kts | 90° |
| 2026-05-08 17:55 | 10.59543 | -61.38440 | 621 ft | 133 kts | 91° |
| 2026-05-08 17:55 | 10.59536 | -61.37508 | 465 ft | 135 kts | 92° |
| 2026-05-08 17:55 | 10.59533 | -61.36562 | 377 ft | 138 kts | 91° |
| 2026-05-08 17:56 | 10.59524 | -61.35556 | 198 ft | 143 kts | 91° |
| 2026-05-08 17:56 | 10.59529 | -61.34568 | 70 ft | 135 kts | 91° |
| 2026-05-08 17:56 | 10.59531 | -61.33749 | 72 ft | 87 kts | 90° |
| 2026-05-08 17:56 | 10.59534 | -61.33325 | 75 ft | 38 kts | 90° |
| 2026-05-08 17:57 | 10.59539 | -61.33056 | 77 ft | 36 kts | 86° |
| 2026-05-08 17:57 | 10.59644 | -61.32948 | 78 ft | 21 kts | 356° |
| 2026-05-08 17:57 | 10.59700 | -61.33051 | 78 ft | 17 kts | 267° |
| 2026-05-08 17:57 | 10.59696 | -61.33172 | 78 ft | 16 kts | 268° |
| 2026-05-08 17:58 | 10.59698 | -61.33286 | 78 ft | 15 kts | 272° |
| 2026-05-08 17:58 | 10.59701 | -61.33398 | 77 ft | 17 kts | 270° |
| 2026-05-08 17:58 | 10.59699 | -61.33564 | 74 ft | 29 kts | 270° |
| 2026-05-08 17:58 | 10.59720 | -61.33720 | 73 ft | 14 kts | 330° |
| 2026-05-08 17:59 | 10.59815 | -61.33727 | 73 ft | 13 kts | 1° |
| 2026-05-08 17:59 | 10.59887 | -61.33747 | 74 ft | 9 kts | 309° |
| 2026-05-08 17:59 | 10.59923 | -61.33794 | 74 ft | 4 kts | 307° |
| 2026-05-08 17:59 | 10.59939 | -61.33816 | 73 ft | 2 kts | 306° |
| 2026-05-08 18:00 | 10.59940 | -61.33818 | 73 ft | 0 kts | 306° |